Time;durP1;ratioP1;P1;durP2;ratioP2;P2;SDS_P1;SDS_P2;PMS_P1;PMS_P2;Temp;Humidity;BMP_temperature;BMP_pressure;BME280_temperature;BME280_humidity;BME280_pressure;Samples;Min_cycle;Max_cycle;Signal;HPM_P1;HPM_P2
2022/08/20 00:02:15;;;;;;;20.20;12.93;;;;;;;18.37;100.00;100544.38;4951713;28;20110;-79
2022/08/20 00:04:41;;;;;;;22.13;15.43;;;;;;;18.37;100.00;100547.06;4952506;28;20027;-78
2022/08/20 00:07:06;;;;;;;16.52;14.43;;;;;;;18.37;100.00;100551.53;4946691;28;20038;-78
2022/08/20 00:09:33;;;;;;;20.52;14.48;;;;;;;18.32;100.00;100538.56;4950947;28;20046;-78
2022/08/20 00:12:00;;;;;;;22.17;15.25;;;;;;;18.33;100.00;100544.75;4951927;28;20027;-78
2022/08/20 00:14:25;;;;;;;24.58;18.63;;;;;;;18.37;100.00;100549.72;4951959;28;20034;-78
2022/08/20 00:16:51;;;;;;;19.85;16.77;;;;;;;18.07;100.00;100498.09;4952191;28;20114;-78
2022/08/20 00:19:17;;;;;;;32.60;19.17;;;;;;;18.37;100.00;100547.06;4950578;28;20478;-79
2022/08/20 00:21:42;;;;;;;22.00;18.92;;;;;;;18.45;100.00;100548.25;4952381;28;20067;-79
2022/08/20 00:24:08;;;;;;;28.20;21.98;;;;;;;17.91;100.00;100447.97;4952745;28;20073;-78
2022/08/20 00:26:33;;;;;;;23.42;18.48;;;;;;;18.38;100.00;100522.13;4951453;28;20031;-78
2022/08/20 00:28:59;;;;;;;25.60;20.42;;;;;;;18.55;100.00;100549.25;4970220;28;21449;-77
2022/08/20 00:31:24;;;;;;;24.65;20.48;;;;;;;18.56;100.00;100542.91;4972616;28;20086;-77
2022/08/20 00:33:50;;;;;;;25.52;18.33;;;;;;;18.36;100.00;100518.75;4949813;28;20079;-76
2022/08/20 00:36:16;;;;;;;30.02;23.13;;;;;;;18.27;100.00;100503.53;4965420;28;20032;-77
2022/08/20 00:38:43;;;;;;;30.80;22.30;;;;;;;18.55;100.00;100547.44;4952230;28;20043;-77
2022/08/20 00:41:16;;;;;;;29.75;24.05;;;;;;;18.53;100.00;100548.50;4951386;28;20504;-75
2022/08/20 00:43:48;;;;;;;32.53;22.73;;;;;;;18.40;100.00;100535.31;4934595;29;20027;-76
2022/08/20 00:46:20;;;;;;;35.47;24.42;;;;;;;18.38;100.00;100527.44;4952084;28;20513;-76
2022/08/20 00:48:50;;;;;;;30.85;25.45;;;;;;;18.52;100.00;100544.16;4951591;28;20462;-77
2022/08/20 00:51:30;;;;;;;32.92;26.65;;;;;;;18.54;100.00;100555.53;4951787;28;20027;-76
2022/08/20 00:54:19;;;;;;;31.45;25.90;;;;;;;18.47;100.00;100547.16;4950555;29;20035;-76
2022/08/20 00:56:49;;;;;;;29.35;25.75;;;;;;;18.44;100.00;100551.88;4915483;28;20047;-77
2022/08/20 00:59:19;;;;;;;27.80;22.90;;;;;;;18.39;100.00;100544.25;5004288;28;20033;-75
2022/08/20 01:01:45;;;;;;;29.90;22.83;;;;;;;18.43;100.00;100544.84;4951550;28;20054;-76
2022/08/20 01:04:11;;;;;;;31.00;24.92;;;;;;;18.43;100.00;100551.03;4951370;28;20496;-77
2022/08/20 01:06:37;;;;;;;31.77;24.33;;;;;;;18.41;100.00;100542.34;4951734;28;20039;-78
2022/08/20 01:09:04;;;;;;;25.90;23.13;;;;;;;18.44;100.00;100551.88;4951224;28;20046;-78
2022/08/20 01:11:33;;;;;;;29.33;25.58;;;;;;;18.39;100.00;100550.41;4937771;29;20032;-77
2022/08/20 01:14:27;;;;;;;35.33;23.30;;;;;;;18.43;100.00;100547.50;4945057;28;20058;-77
2022/08/20 01:16:57;;;;;;;29.30;23.50;;;;;;;18.41;100.00;100542.34;5001530;28;20057;-78
2022/08/20 01:19:47;;;;;;;26.92;21.40;;;;;;;18.38;100.00;100553.22;4934028;28;20844;-78
2022/08/20 01:25:09;;;;;;;28.88;24.85;;;;;;;17.95;100.00;100483.97;5006815;28;20172;-77
2022/08/20 01:27:35;;;;;;;34.38;26.08;;;;;;;18.24;100.00;100535.69;4950473;28;20042;-78
2022/08/20 01:30:01;;;;;;;35.10;26.65;;;;;;;17.88;100.00;100480.09;4933043;29;20027;-79
2022/08/20 01:32:27;;;;;;;31.27;25.73;;;;;;;18.17;100.00;100528.31;4946486;28;20039;-79
2022/08/20 01:34:52;;;;;;;37.63;27.13;;;;;;;18.18;100.00;100533.50;4937740;28;20031;-78
2022/08/20 01:37:17;;;;;;;28.95;24.83;;;;;;;18.21;100.00;100535.09;4950874;29;20031;-78
2022/08/20 01:39:43;;;;;;;28.10;25.05;;;;;;;18.25;100.00;100544.53;4951400;28;20050;-77
2022/08/20 01:42:29;;;;;;;30.33;25.80;;;;;;;18.23;100.00;100544.63;4951399;28;20118;-78
2022/08/20 01:44:54;;;;;;;35.67;27.52;;;;;;;18.20;100.00;100544.88;4961413;28;20035;-77
2022/08/20 01:47:24;;;;;;;44.55;32.42;;;;;;;18.17;100.00;100550.44;4948955;28;20457;-78
2022/08/20 01:49:52;;;;;;;38.10;30.42;;;;;;;18.12;100.00;100543.78;4950937;28;20055;-78
2022/08/20 01:53:00;;;;;;;42.38;35.35;;;;;;;18.14;100.00;100549.84;4950602;28;20034;-78
2022/08/20 01:55:26;;;;;;;41.70;37.20;;;;;;;18.14;100.00;100553.34;4948850;28;20043;-79
2022/08/20 01:57:52;;;;;;;39.42;33.67;;;;;;;18.07;100.00;100549.50;4949498;28;20110;-79
2022/08/20 02:00:18;;;;;;;38.85;31.10;;;;;;;17.91;100.00;100533.06;4965710;28;20625;-76
2022/08/20 02:02:43;;;;;;;39.40;32.30;;;;;;;17.82;100.00;100515.13;4946712;28;20118;-77
2022/08/20 02:05:10;;;;;;;42.88;34.67;;;;;;;18.03;100.00;100558.66;4949935;29;20039;-78
2022/08/20 02:07:36;;;;;;;38.55;34.08;;;;;;;18.00;100.00;100540.28;4951079;28;20038;-78
2022/08/20 02:10:04;;;;;;;50.67;39.00;;;;;;;18.03;100.00;100557.81;4950094;28;20058;-77
2022/08/20 02:12:30;;;;;;;48.70;38.45;;;;;;;17.97;100.00;100559.16;4952582;28;20023;-79
2022/08/20 02:14:55;;;;;;;47.72;42.22;;;;;;;17.95;100.00;100560.22;4954989;28;20073;-78
2022/08/20 02:17:22;;;;;;;44.38;37.67;;;;;;;17.88;100.00;100554.53;4950795;28;20046;-79
2022/08/20 02:19:52;;;;;;;46.17;40.03;;;;;;;17.82;100.00;100561.19;4918652;28;20063;-77
2022/08/20 02:22:21;;;;;;;50.05;42.38;;;;;;;17.77;100.00;100565.19;4969430;28;20114;-78
2022/08/20 02:24:46;;;;;;;45.97;39.08;;;;;;;17.70;100.00;100558.63;4964698;28;20031;-77
2022/08/20 02:27:12;;;;;;;48.45;38.83;;;;;;;17.70;100.00;100574.59;4954207;28;20042;-79
2022/08/20 02:29:38;;;;;;;45.03;39.30;;;;;;;17.41;100.00;100528.09;4952132;28;20019;-78
2022/08/20 02:32:05;;;;;;;45.83;39.40;;;;;;;17.29;100.00;100503.31;5017376;28;20027;-81
2022/08/20 02:34:31;;;;;;;44.65;39.72;;;;;;;17.62;100.00;100569.00;4950172;28;20106;-79
2022/08/20 02:36:56;;;;;;;53.70;48.30;;;;;;;17.52;100.00;100558.19;4952808;28;20106;-80
2022/08/20 02:39:21;;;;;;;43.47;39.15;;;;;;;17.53;100.00;100559.06;4951356;28;20035;-76
2022/08/20 02:41:48;;;;;;;45.42;40.47;;;;;;;17.57;100.00;100571.19;4953386;28;20039;-79
2022/08/20 02:44:14;;;;;;;41.75;37.30;;;;;;;17.56;100.00;100567.66;4953884;28;20027;-80
2022/08/20 02:46:39;;;;;;;52.33;38.15;;;;;;;17.45;100.00;100556.13;4953700;29;20096;-79
2022/08/20 02:49:04;;;;;;;45.03;38.53;;;;;;;17.52;100.00;100567.97;4953151;28;20114;-75
2022/08/20 02:51:30;;;;;;;40.92;36.03;;;;;;;17.36;100.00;100545.25;4929525;28;20367;-80
2022/08/20 02:53:55;;;;;;;41.10;35.05;;;;;;;17.35;100.00;100556.81;4948801;28;20040;-79
2022/08/20 02:56:21;;;;;;;45.15;37.80;;;;;;;17.46;100.00;100569.28;4968605;28;20031;-81
2022/08/20 02:58:46;;;;;;;39.97;35.47;;;;;;;17.24;100.00;100548.81;4953752;28;20126;-79
2022/08/20 03:01:15;;;;;;;46.63;39.72;;;;;;;17.38;100.00;100572.53;4934959;28;20066;-80
2022/08/20 03:03:41;;;;;;;46.70;35.70;;;;;;;17.09;100.00;100526.06;4944907;28;20101;-79
2022/08/20 03:06:08;;;;;;;45.50;37.25;;;;;;;17.38;100.00;100577.84;4948916;28;20477;-80
2022/08/20 03:08:34;;;;;;;56.08;45.08;;;;;;;17.22;100.00;100566.69;4953609;28;20049;-79
2022/08/20 03:11:00;;;;;;;45.25;37.70;;;;;;;17.28;100.00;100582.16;4953470;28;20440;-78
2022/08/20 03:13:25;;;;;;;42.53;36.17;;;;;;;17.24;100.00;100583.34;5019634;28;20031;-79
2022/08/20 03:15:54;;;;;;;44.92;34.70;;;;;;;17.19;100.00;100580.19;4952695;28;20027;-79
2022/08/20 03:18:22;;;;;;;41.22;34.28;;;;;;;17.18;100.00;100574.97;4936019;28;20023;-79
2022/08/20 03:20:48;;;;;;;37.20;33.25;;;;;;;16.83;100.00;100521.88;4952952;28;20043;-81
2022/08/20 03:23:15;;;;;;;37.75;33.63;;;;;;;17.08;100.00;100576.63;4950672;28;20070;-80
2022/08/20 03:25:41;;;;;;;41.90;34.72;;;;;;;17.00;100.00;100563.91;4946134;28;20103;-81
2022/08/20 03:28:07;;;;;;;40.75;31.02;;;;;;;17.01;100.00;100578.91;5014417;28;20146;-81
2022/08/20 03:30:32;;;;;;;39.40;31.70;;;;;;;16.88;100.00;100562.19;4952953;28;20027;-82
2022/08/20 03:32:58;;;;;;;41.70;34.40;;;;;;;17.00;100.00;100581.69;4943802;29;20047;-80
2022/08/20 03:35:26;;;;;;;38.30;34.10;;;;;;;17.01;100.00;100583.34;4950076;28;20027;-81
2022/08/20 03:37:51;;;;;;;35.40;31.05;;;;;;;17.05;100.00;100590.13;5010452;28;20076;-76
2022/08/20 03:40:31;;;;;;;42.63;29.08;;;;;;;17.08;100.00;100596.06;4951701;28;20619;-80
2022/08/20 03:42:57;;;;;;;32.75;29.35;;;;;;;16.95;100.00;100558.13;4938444;28;20039;-79
2022/08/20 03:45:23;;;;;;;31.75;28.42;;;;;;;17.06;100.00;100582.06;4952851;28;20370;-75
2022/08/20 03:47:50;;;;;;;39.17;28.10;;;;;;;17.00;100.00;100590.47;4951479;28;20089;-80
2022/08/20 03:50:18;;;;;;;35.10;29.63;;;;;;;16.97;100.00;100592.50;4952633;28;20043;-80
2022/08/20 03:52:43;;;;;;;30.48;24.73;;;;;;;16.88;100.00;100578.09;4935436;28;20027;-81
2022/08/20 03:55:09;;;;;;;36.00;27.13;;;;;;;16.92;100.00;100590.19;4952792;28;20038;-78
2022/08/20 03:57:35;;;;;;;30.65;24.60;;;;;;;16.91;100.00;100587.63;4936718;28;20541;-80
2022/08/20 04:00:03;;;;;;;35.47;24.90;;;;;;;16.91;100.00;100591.16;4936977;28;20027;-81
2022/08/20 04:02:28;;;;;;;34.45;26.08;;;;;;;16.91;100.00;100592.94;4967801;28;20035;-81
2022/08/20 04:04:54;;;;;;;27.50;24.23;;;;;;;16.88;100.00;100588.72;4952058;28;20502;-81
2022/08/20 04:07:27;;;;;;;28.88;24.02;;;;;;;16.82;100.00;100579.41;4952275;28;20110;-81
2022/08/20 04:09:54;;;;;;;27.58;24.05;;;;;;;16.84;100.00;100585.44;4946138;29;20377;-81
2022/08/20 04:12:21;;;;;;;26.25;22.00;;;;;;;16.80;100.00;100585.75;4926725;28;20371;-80
2022/08/20 04:14:46;;;;;;;28.55;24.00;;;;;;;16.82;100.00;100591.84;4937014;28;20103;-81
2022/08/20 04:17:12;;;;;;;34.03;23.15;;;;;;;16.55;100.00;100548.69;4933913;28;20115;-80
2022/08/20 04:19:39;;;;;;;24.92;20.52;;;;;;;16.78;100.00;100604.47;4924917;28;20570;-81
2022/08/20 04:22:06;;;;;;;25.75;19.63;;;;;;;16.73;100.00;100598.63;4967526;28;20023;-81
2022/08/20 04:24:32;;;;;;;24.52;17.90;;;;;;;16.69;100.00;100606.94;4950430;28;20031;-80
2022/08/20 04:27:01;;;;;;;33.97;17.95;;;;;;;16.59;100.00;100597.97;4950715;28;20431;-80
2022/08/20 04:29:27;;;;;;;21.80;16.60;;;;;;;16.41;100.00;100575.34;4934322;29;20027;-80
2022/08/20 04:31:52;;;;;;;26.60;17.85;;;;;;;16.61;100.00;100604.00;4949320;28;20102;-80
2022/08/20 04:34:18;;;;;;;24.10;17.83;;;;;;;16.54;100.00;100605.34;4949049;28;20197;-81
2022/08/20 04:36:47;;;;;;;23.30;16.15;;;;;;;16.58;100.00;100607.72;4948726;28;20085;-82
2022/08/20 04:39:15;;;;;;;21.23;14.13;;;;;;;16.55;100.00;100617.66;4950825;28;21474;-79
2022/08/20 04:41:41;;;;;;;20.58;13.48;;;;;;;16.46;100.00;100613.03;4965393;28;20530;-78
2022/08/20 04:44:08;;;;;;;23.05;13.50;;;;;;;16.44;100.00;100623.72;4950596;28;20047;-79
2022/08/20 04:46:34;;;;;;;22.45;14.07;;;;;;;16.36;100.00;100628.72;4939490;28;20032;-80
2022/08/20 04:49:00;;;;;;;29.10;13.38;;;;;;;16.27;100.00;100632.03;4928320;28;20384;-81
2022/08/20 04:51:25;;;;;;;28.60;13.18;;;;;;;16.22;100.00;100624.38;4951962;28;20035;-80
2022/08/20 04:53:56;;;;;;;27.65;13.18;;;;;;;16.22;100.00;100637.63;4937872;28;20088;-81
2022/08/20 04:56:24;;;;;;;16.40;12.32;;;;;;;16.23;100.00;100644.66;4941244;29;20039;-82
2022/08/20 04:58:51;;;;;;;22.33;13.18;;;;;;;16.23;100.00;100649.09;4932822;28;20031;-81
2022/08/20 05:01:16;;;;;;;27.38;13.48;;;;;;;16.08;100.00;100624.50;4934396;28;20041;-81
2022/08/20 05:03:42;;;;;;;32.58;13.07;;;;;;;16.22;100.00;100648.25;4951760;28;20027;-81
2022/08/20 05:06:09;;;;;;;26.15;13.35;;;;;;;16.24;100.00;100649.00;4951358;28;20042;-80
2022/08/20 05:08:35;;;;;;;23.52;13.35;;;;;;;16.23;100.00;100644.66;5017435;28;20054;-77
2022/08/20 05:11:01;;;;;;;19.70;12.70;;;;;;;16.26;100.00;100654.19;4933985;28;20039;-77
2022/08/20 05:13:27;;;;;;;19.17;11.93;;;;;;;16.25;100.00;100657.81;4958878;28;20434;-77
2022/08/20 05:15:52;;;;;;;20.80;12.50;;;;;;;16.14;100.00;100640.00;5016994;28;20038;-78
2022/08/20 05:18:20;;;;;;;26.20;13.00;;;;;;;16.15;100.00;100652.31;5017185;28;20023;-78
2022/08/20 05:20:47;;;;;;;23.48;13.35;;;;;;;15.74;100.00;100588.03;4938689;28;20102;-79
2022/08/20 05:23:14;;;;;;;22.38;11.70;;;;;;;16.05;100.00;100645.09;4950665;28;20066;-78
2022/08/20 05:25:41;;;;;;;22.73;11.82;;;;;;;16.06;100.00;100649.41;4966370;28;20115;-81
2022/08/20 05:28:11;;;;;;;27.08;13.02;;;;;;;16.07;100.00;100659.91;4938144;28;20031;-79
2022/08/20 05:30:37;;;;;;;27.08;13.27;;;;;;;16.06;100.00;100660.88;4966081;28;20027;-80
2022/08/20 05:33:05;;;;;;;31.73;13.13;;;;;;;16.06;100.00;100665.31;4951259;28;20031;-82
2022/08/20 05:35:33;;;;;;;24.80;13.25;;;;;;;16.04;100.00;100670.75;4939619;28;20097;-79
2022/08/20 05:38:00;;;;;;;26.08;12.27;;;;;;;16.04;100.00;100670.75;4944453;28;20027;-79
2022/08/20 05:40:26;;;;;;;27.90;15.82;;;;;;;16.01;100.00;100670.94;4950832;28;20097;-79
2022/08/20 05:42:52;;;;;;;33.08;15.85;;;;;;;16.00;100.00;100677.19;4950577;28;20039;-78
2022/08/20 05:45:18;;;;;;;26.55;15.65;;;;;;;15.52;100.00;100601.03;4951860;28;20031;-78
2022/08/20 05:47:44;;;;;;;32.35;17.27;;;;;;;15.93;100.00;100662.66;4954196;29;20027;-80
2022/08/20 05:50:12;;;;;;;21.80;16.17;;;;;;;16.00;100.00;100669.25;4958641;28;20462;-82
2022/08/20 05:52:38;;;;;;;35.53;18.17;;;;;;;15.97;100.00;100682.72;5007606;28;20063;-83
2022/08/20 05:55:05;;;;;;;28.65;18.17;;;;;;;16.02;100.00;100685.06;4936494;29;20397;-82
2022/08/20 05:57:31;;;;;;;27.88;17.58;;;;;;;16.02;100.00;100677.94;4969411;28;20039;-84
2022/08/20 05:59:58;;;;;;;34.60;20.38;;;;;;;16.01;100.00;100686.84;4954404;28;20030;-83
2022/08/20 06:05:07;;;;;;;35.47;21.67;;;;;;;15.99;100.00;100682.59;4949944;28;20464;-84
2022/08/20 06:07:33;;;;;;;26.50;20.75;;;;;;;16.00;100.00;100685.16;4953705;28;20039;-79
2022/08/20 06:09:59;;;;;;;34.10;22.35;;;;;;;15.94;100.00;100685.56;4954157;28;20031;-82
2022/08/20 06:12:24;;;;;;;55.95;25.60;;;;;;;16.00;100.00;100690.44;4924419;28;20462;-82
2022/08/20 06:14:50;;;;;;;41.65;24.55;;;;;;;15.99;100.00;100687.88;4945398;28;20174;-81
2022/08/20 06:17:17;;;;;;;41.00;23.33;;;;;;;16.04;100.00;100693.75;4954652;28;20473;-82
2022/08/20 06:19:44;;;;;;;42.75;23.10;;;;;;;15.80;100.00;100649.41;4964727;28;20031;-82
2022/08/20 06:22:10;;;;;;;46.58;22.00;;;;;;;16.08;100.00;100688.16;5013387;28;20081;-81
2022/08/20 06:24:36;;;;;;;33.50;21.67;;;;;;;16.02;100.00;100683.22;4953840;28;20042;-82
2022/08/20 06:27:03;;;;;;;39.08;22.90;;;;;;;16.08;100.00;100682.00;5020672;28;20019;-82
2022/08/20 06:29:29;;;;;;;36.30;22.20;;;;;;;16.10;100.00;100691.53;4953551;28;20469;-81
2022/08/20 06:31:55;;;;;;;39.72;22.42;;;;;;;16.11;100.00;100687.94;4953987;28;20114;-83
2022/08/20 06:34:21;;;;;;;32.10;22.42;;;;;;;16.09;100.00;100696.91;4952119;28;20044;-81
2022/08/20 06:36:46;;;;;;;46.33;22.67;;;;;;;16.05;100.00;100677.75;5021504;28;20029;-81
2022/08/20 06:39:13;;;;;;;43.92;24.30;;;;;;;16.09;100.00;100694.25;4954311;28;20034;-82
2022/08/20 06:41:38;;;;;;;50.03;25.35;;;;;;;15.96;100.00;100675.69;4953411;28;20024;-79
2022/08/20 06:44:06;;;;;;;53.72;24.58;;;;;;;15.87;100.00;100667.53;4943724;28;20042;-77
2022/08/20 06:46:32;;;;;;;49.33;28.20;;;;;;;15.89;100.00;100682.38;4921055;28;20081;-79
2022/08/20 06:48:57;;;;;;;46.55;24.20;;;;;;;15.90;100.00;100684.06;4946958;28;20465;-79
2022/08/20 06:51:23;;;;;;;51.75;26.42;;;;;;;15.87;100.00;100675.47;4953392;28;20102;-77
2022/08/20 06:53:48;;;;;;;53.60;24.15;;;;;;;15.93;100.00;100694.47;5011187;28;20023;-78
2022/08/20 06:56:13;;;;;;;56.00;27.02;;;;;;;15.84;100.00;100677.41;4952544;28;20441;-77
2022/08/20 06:58:39;;;;;;;43.42;23.45;;;;;;;15.55;100.00;100625.50;4950585;28;20020;-76
2022/08/20 07:01:06;;;;;;;50.40;25.58;;;;;;;15.89;100.00;100671.75;4999280;28;20050;-78
2022/08/20 07:03:31;;;;;;;40.88;23.33;;;;;;;16.07;100.00;100697.03;4963981;28;20058;-79
2022/08/20 07:05:58;;;;;;;42.63;26.55;;;;;;;16.15;100.00;100689.41;4945239;28;20432;-79
2022/08/20 07:08:23;;;;;;;46.05;24.83;;;;;;;16.26;100.00;100686.84;4951870;28;20089;-79
2022/08/20 07:10:49;;;;;;;55.90;25.98;;;;;;;16.09;100.00;100655.34;4948644;28;20465;-78
2022/08/20 07:13:15;;;;;;;56.53;23.83;;;;;;;16.23;100.00;100687.06;5003761;28;20031;-78
2022/08/20 07:15:41;;;;;;;45.95;21.80;;;;;;;16.24;100.00;100691.44;4963443;28;20027;-79
2022/08/20 07:18:07;;;;;;;40.17;23.42;;;;;;;16.22;100.00;100685.38;4953395;28;20035;-81
2022/08/20 07:20:34;;;;;;;49.85;25.40;;;;;;;16.22;100.00;100700.47;5018027;28;20115;-78
2022/08/20 07:23:00;;;;;;;42.30;22.35;;;;;;;16.18;100.00;100698.97;4958360;28;20057;-78
2022/08/20 07:25:25;;;;;;;48.17;25.52;;;;;;;16.17;100.00;100703.41;4952936;28;20027;-81
2022/08/20 07:27:51;;;;;;;52.10;23.92;;;;;;;16.13;100.00;100704.56;4945808;28;20166;-79
2022/08/20 07:33:07;;;;;;;44.67;23.80;;;;;;;16.14;100.00;100693.00;4991593;28;20096;-78
2022/08/20 07:35:32;;;;;;;43.17;23.67;;;;;;;16.13;100.00;100699.25;5017738;28;20027;-78
2022/08/20 07:37:58;;;;;;;47.05;24.38;;;;;;;16.17;100.00;100708.72;4964101;28;20189;-77
2022/08/20 07:40:26;;;;;;;45.47;23.98;;;;;;;16.19;100.00;100712.09;4938656;28;20468;-76
2022/08/20 07:42:55;;;;;;;44.70;24.75;;;;;;;16.26;100.00;100723.97;4918079;28;20071;-76
2022/08/20 07:45:20;;;;;;;43.45;26.27;;;;;;;16.24;100.00;100725.91;4936663;28;20028;-76
2022/08/20 07:47:47;;;;;;;48.47;26.45;;;;;;;16.21;100.00;100720.81;4939468;28;20042;-76
2022/08/20 07:50:15;;;;;;;37.83;22.90;;;;;;;16.29;100.00;100729.06;4945628;28;20027;-78
2022/08/20 07:52:41;;;;;;;42.90;23.60;;;;;;;16.28;100.00;100729.19;4933362;28;20124;-80
2022/08/20 07:55:09;;;;;;;49.75;24.52;;;;;;;16.24;100.00;100717.09;4951395;28;20489;-78
2022/08/20 07:57:36;;;;;;;43.05;24.60;;;;;;;16.44;100.00;100747.56;5017648;28;20031;-78
2022/08/20 08:00:03;;;;;;;53.95;26.33;;;;;;;16.47;100.00;100734.94;4983686;28;20024;-79
2022/08/20 08:02:29;;;;;;;46.30;24.77;;;;;;;16.56;100.00;100741.44;4960326;28;20035;-78
2022/08/20 08:04:54;;;;;;;51.30;24.35;;;;;;;16.64;100.00;100737.28;4998836;28;20035;-78
2022/08/20 08:07:21;;;;;;;48.08;25.15;;;;;;;16.34;100.00;100673.06;5012290;28;20027;-79
2022/08/20 08:09:47;;;;;;;41.17;23.10;;;;;;;16.68;100.00;100719.34;4956857;28;20102;-75
2022/08/20 08:12:13;;;;;;;38.15;23.02;;;;;;;16.82;100.00;100735.16;4952063;28;20023;-77
2022/08/20 08:14:40;;;;;;;41.88;24.92;;;;;;;16.91;100.00;100721.22;5017584;28;20045;-76
2022/08/20 08:17:06;;;;;;;44.42;25.27;;;;;;;16.92;100.00;100738.84;4961294;28;20031;-75
2022/08/20 08:19:37;;;;;;;41.22;22.95;;;;;;;16.84;100.00;100735.88;4948862;28;20050;-74
2022/08/20 08:22:04;;;;;;;33.33;22.38;;;;;;;16.83;100.00;100735.03;4959866;28;20043;-76
2022/08/20 08:24:30;;;;;;;49.08;26.50;;;;;;;16.92;100.00;100738.84;4971618;28;20034;-79
2022/08/20 08:26:55;;;;;;;47.80;26.00;;;;;;;17.06;100.00;100733.41;4953255;28;20057;-76
2022/08/20 08:29:20;;;;;;;45.53;27.92;;;;;;;17.23;100.00;100733.06;4956655;28;20477;-79
2022/08/20 08:31:46;;;;;;;41.10;25.10;;;;;;;17.35;100.00;100731.31;4961775;28;20088;-76
2022/08/20 08:34:11;;;;;;;49.10;27.08;;;;;;;17.55;100.00;100737.81;4960748;28;20504;-77
2022/08/20 08:36:38;;;;;;;42.45;24.80;;;;;;;17.64;100.00;100740.66;4937685;28;20385;-80
2022/08/20 08:39:03;;;;;;;42.88;24.25;;;;;;;17.53;100.00;100716.69;4928486;28;20023;-77
2022/08/20 08:41:32;;;;;;;42.20;21.27;;;;;;;17.78;100.00;100742.31;4987895;28;20397;-78
2022/08/20 08:44:22;;;;;;;42.33;20.92;;;;;;;17.73;100.00;100741.81;5004508;28;20035;-77
2022/08/20 08:46:50;;;;;;;38.42;22.50;;;;;;;17.67;100.00;100734.28;4931690;28;20032;-75
2022/08/20 08:49:20;;;;;;;36.83;20.30;;;;;;;17.75;100.00;100758.47;4965868;28;20134;-75
2022/08/20 08:51:55;;;;;;;30.17;19.70;;;;;;;17.52;100.00;100719.44;4950538;29;20032;-77
2022/08/20 08:54:23;;;;;;;33.63;21.00;;;;;;;17.81;100.00;100750.06;4935122;28;20471;-77
2022/08/20 08:56:49;;;;;;;34.53;21.83;;;;;;;17.67;100.00;100707.72;4954669;28;20111;-79
2022/08/20 08:59:14;;;;;;;34.85;21.60;;;;;;;17.77;100.00;100751.25;5001548;28;20031;-77
2022/08/20 09:01:45;;;;;;;33.97;19.88;;;;;;;17.85;100.00;100752.38;4928496;28;20031;-78
2022/08/20 09:04:16;;;;;;;30.00;20.13;;;;;;;17.80;100.00;100756.34;5003799;28;20035;-76
2022/08/20 09:06:42;;;;;;;37.58;20.48;;;;;;;17.73;100.00;100752.44;4928611;28;20382;-75
2022/08/20 09:09:22;;;;;;;39.03;21.60;;;;;;;17.87;100.00;100765.56;5016652;28;20097;-76
2022/08/20 09:11:53;;;;;;;45.38;21.13;;;;;;;17.78;100.00;100771.53;4928849;28;20062;-78
2022/08/20 09:14:20;;;;;;;30.65;19.67;;;;;;;17.70;100.00;100760.66;4928353;28;20031;-80
2022/08/20 09:16:45;;;;;;;31.02;19.23;;;;;;;17.78;100.00;100776.84;4930702;28;20035;-79
2022/08/20 09:19:11;;;;;;;35.08;19.92;;;;;;;17.85;100.00;100768.31;4928669;28;20044;-77
2022/08/20 09:21:37;;;;;;;31.27;18.38;;;;;;;17.77;100.00;100759.22;4916383;28;20069;-77
2022/08/20 09:24:03;;;;;;;36.47;21.60;;;;;;;17.81;100.00;100776.66;4995666;28;20127;-82
2022/08/20 09:26:29;;;;;;;31.00;19.63;;;;;;;17.72;100.00;100777.31;4941579;28;20039;-81
2022/08/20 09:28:54;;;;;;;35.42;19.30;;;;;;;17.67;100.00;100780.34;4946922;28;20036;-78
2022/08/20 09:31:20;;;;;;;36.08;20.38;;;;;;;17.67;100.00;100779.47;4919960;28;20028;-75
2022/08/20 09:33:47;;;;;;;36.47;21.58;;;;;;;17.54;100.00;100766.19;4945195;28;20101;-77
2022/08/20 09:36:13;;;;;;;35.50;18.70;;;;;;;17.49;100.00;100771.00;4936158;28;20035;-82
2022/08/20 09:38:38;;;;;;;31.65;18.00;;;;;;;17.51;100.00;100773.53;5018445;28;20027;-80
2022/08/20 09:41:03;;;;;;;27.48;19.10;;;;;;;17.58;100.00;100778.31;5008986;28;20028;-75
2022/08/20 09:43:29;;;;;;;42.17;19.65;;;;;;;17.55;100.00;100780.31;4999821;28;20477;-75
2022/08/20 09:45:54;;;;;;;28.58;19.02;;;;;;;17.54;100.00;100781.31;4942578;28;20040;-73
2022/08/20 09:48:20;;;;;;;21.48;17.05;;;;;;;17.60;100.00;100772.91;4953178;28;20388;-75
2022/08/20 09:50:49;;;;;;;31.30;18.23;;;;;;;17.66;100.00;100775.13;4953316;28;20035;-79
2022/08/20 09:53:15;;;;;;;28.75;15.57;;;;;;;17.67;100.00;100774.16;4936609;28;20030;-78
2022/08/20 09:55:43;;;;;;;30.13;15.80;;;;;;;17.66;100.00;100770.66;4942588;28;20038;-76
2022/08/20 09:58:16;;;;;;;29.00;16.40;;;;;;;17.82;100.00;100778.34;4918569;28;20062;-75
2022/08/20 10:00:42;;;;;;;21.35;14.45;;;;;;;17.80;100.00;100764.31;4928687;28;20373;-76
2022/08/20 10:03:07;;;;;;;30.13;15.73;;;;;;;17.85;100.00;100762.16;4932610;28;20040;-77
2022/08/20 10:05:33;;;;;;;30.23;18.08;;;;;;;17.86;100.00;100764.72;4950338;28;20027;-75
2022/08/20 10:07:58;;;;;;;30.02;16.45;;;;;;;17.87;100.00;100765.56;4948448;28;20059;-75
2022/08/20 10:10:24;;;;;;;21.63;15.73;;;;;;;17.94;100.00;100773.94;4947082;28;20030;-77
2022/08/20 10:12:49;;;;;;;23.38;15.38;;;;;;;17.96;100.00;100780.81;4949358;28;20504;-75
2022/08/20 10:15:15;;;;;;;21.60;15.25;;;;;;;17.86;100.00;100771.84;4936945;28;20039;-75
2022/08/20 10:17:42;;;;;;;26.17;15.80;;;;;;;18.00;100.00;100787.63;5005226;28;20035;-76
2022/08/20 10:20:10;;;;;;;28.70;16.08;;;;;;;18.14;100.00;100789.25;4928092;28;20027;-74
2022/08/20 10:22:36;;;;;;;30.80;17.10;;;;;;;18.27;100.00;100793.53;4940657;28;20029;-77
2022/08/20 10:25:01;;;;;;;20.35;15.18;;;;;;;17.86;100.00;100716.00;4951467;28;20398;-75
2022/08/20 10:27:26;;;;;;;28.25;15.77;;;;;;;18.46;100.00;100786.78;5017072;28;20039;-77
2022/08/20 10:29:52;;;;;;;21.42;14.18;;;;;;;18.58;100.00;100777.91;4957802;28;20031;-76
2022/08/20 10:32:17;;;;;;;22.55;13.57;;;;;;;18.71;100.00;100783.97;4933603;28;20031;-77
2022/08/20 10:34:44;;;;;;;24.42;14.60;;;;;;;18.70;100.00;100788.44;4935754;28;20031;-78
2022/08/20 10:37:16;;;;;;;23.90;13.88;;;;;;;18.73;100.00;100774.03;4922050;28;20114;-77
2022/08/20 10:39:44;;;;;;;23.92;13.02;;;;;;;18.83;100.00;100790.97;4950965;28;20036;-77
2022/08/20 10:42:09;;;;;;;24.50;14.73;;;;;;;18.21;100.00;100708.00;5007506;28;20039;-77
2022/08/20 10:44:35;;;;;;;23.73;13.88;;;;;;;18.71;100.00;100797.28;4952308;28;20027;-77
2022/08/20 10:47:18;;;;;;;21.42;12.90;;;;;;;18.91;100.00;100796.56;4952687;29;20055;-76
2022/08/20 10:49:44;;;;;;;21.08;12.52;;;;;;;19.08;100.00;100793.44;4939498;28;20054;-76
2022/08/20 10:52:09;;;;;;;24.08;12.63;;;;;;;19.12;100.00;100781.56;4938440;28;20477;-76
2022/08/20 10:54:35;;;;;;;20.90;11.75;;;;;;;18.95;100.00;100750.09;4934178;28;20566;-75
2022/08/20 10:57:01;;;;;;;16.95;11.07;;;;;;;18.86;100.00;100767.63;4934140;28;20038;-77
2022/08/20 10:59:27;;;;;;;19.92;12.10;;;;;;;18.77;100.00;100762.19;5005022;28;20107;-76
2022/08/20 11:01:52;;;;;;;20.10;10.27;;;;;;;18.84;100.00;100774.06;4952608;28;20107;-75
2022/08/20 11:04:17;;;;;;;29.08;12.10;;;;;;;19.14;100.00;100776.94;4946213;29;20047;-69
2022/08/20 11:06:43;;;;;;;22.75;11.27;;;;;;;19.16;100.00;100769.66;4952201;28;20099;-74
2022/08/20 11:09:08;;;;;;;19.48;12.65;;;;;;;19.39;100.00;100786.50;4937939;28;20343;-74
2022/08/20 11:11:34;;;;;;;17.67;9.95;;;;;;;19.59;100.00;100776.91;4936715;28;20027;-73